KSFY

Tri-Township Airport

Savanna, Illinois, USA
METAR KSFY 131036Z AUTO 04005KT 5SM BR CLR M08/M09 A2999 RMK AO2
Observed Flight Rules
Dec-13 @ 10:36 UTC (31 minutes ago) Marginal Visual Flight Rules
Wind Visibility Clouds Conditions
40° at 5 knots 5 miles
  • Clear skies
  • Mist
Temperatures Readings
Current -8°C / 18°F
Dewpoint -9°C / 16°F
Humidity 93%
Altimeter 29.99" Hg
Pressure 1016 hPa
Elevation 188
METAR KSFY 131036Z AUTO 04005KT 5SM BR CLR M08/M09 A2999 RMK AO2
Observed Flight Rules
Dec-13 @ 10:36 UTC
(31 minutes ago)
MVFR
Wind Visibility
40° at 5 knots 5 miles
Clouds
  • Clear skies
Conditions
  • Mist
Temperature Dewpoint
-8°C / 18°F -9°C / 16°F
Humidity Altimeter Pressure
93% 29.99" Hg 1016 hPa